Golden, Colorado
Current Conditions -  °F | °C
As of 8:46 PM on Monday 20 Oct 2014 (Local Time) from KBJC Reporting Station
Few Clouds Few Clouds  
Wind Chill: 57°   Ceiling: Unl
Heat Index: 57°   Visibility: 30mi
Dew Point: 37°   Wind: 5mph
Humidity: 48%   Direction: 240°WSW
Pressure: 30.08"   Gusts: NA
Location:  39.76°N, 105.22°W
Report Text: KBJC 210246Z 24004KT 30SM FEW100 14/03 A3008
Loading
Personal Weather Stations






























Interactive Weather Map
Tropical Storm Tracking
New forecast layout! Learn more

10-Day Weather Forecast

Advertisements
Track Severe Weather on mobile